Time;durP1;ratioP1;P1;durP2;ratioP2;P2;SDS_P1;SDS_P2;PMS_P1;PMS_P2;Temp;Humidity;BMP_temperature;BMP_pressure;BME280_temperature;BME280_humidity;BME280_pressure;Samples;Min_cycle;Max_cycle;Signal;HPM_P1;HPM_P2
2022/07/29 00:01:41;;;;;;;6.10;3.83;;;30.30;57.10;;;;;;5061239;28;20454;-69
2022/07/29 00:04:10;;;;;;;5.20;4.80;;;30.30;57.10;;;;;;5054264;28;20473;-70
2022/07/29 00:06:38;;;;;;;4.40;4.00;;;30.30;57.10;;;;;;5060468;28;20500;-69
2022/07/29 00:09:07;;;;;;;4.67;4.27;;;30.30;57.10;;;;;;5059358;28;20474;-69
2022/07/29 00:11:37;;;;;;;4.60;4.27;;;30.30;57.10;;;;;;5063981;28;20453;-69
2022/07/29 00:14:06;;;;;;;4.00;3.70;;;30.30;57.10;;;;;;5066637;28;20481;-69
2022/07/29 00:16:34;;;;;;;4.83;4.50;;;30.30;57.10;;;;;;5056135;28;21009;-69
2022/07/29 00:19:02;;;;;;;3.60;3.40;;;30.30;57.10;;;;;;5060022;28;20462;-69
2022/07/29 00:21:31;;;;;;;4.47;4.20;;;30.30;57.10;;;;;;5060022;28;20540;-69
2022/07/29 00:23:59;;;;;;;4.33;3.97;;;30.30;57.20;;;;;;5066433;28;20559;-69
2022/07/29 00:26:31;;;;;;;3.57;3.37;;;30.30;57.20;;;;;;5071862;28;20534;-70
2022/07/29 00:29:01;;;;;;;4.93;4.53;;;30.30;57.20;;;;;;5058877;28;20449;-69
2022/07/29 00:31:50;;;;;;;4.70;4.30;;;30.20;57.30;;;;;;5065581;28;20452;-69
2022/07/29 00:37:04;;;;;;;9.70;4.87;;;30.20;57.50;;;;;;5061222;28;20492;-69
2022/07/29 00:39:34;;;;;;;4.07;3.77;;;30.20;57.30;;;;;;5060180;28;20456;-69
2022/07/29 00:42:04;;;;;;;5.90;3.80;;;30.20;57.30;;;;;;5067961;28;20457;-69
2022/07/29 00:44:37;;;;;;;3.90;3.67;;;30.20;57.20;;;;;;5063323;28;20472;-69
2022/07/29 00:47:06;;;;;;;4.10;3.70;;;30.20;57.30;;;;;;5061872;28;20453;-69
2022/07/29 00:49:35;;;;;;;3.97;3.67;;;30.20;57.40;;;;;;5058581;28;20465;-69
2022/07/29 00:52:04;;;;;;;4.23;3.90;;;30.10;57.30;;;;;;5057113;28;21370;-69
2022/07/29 00:54:33;;;;;;;3.97;3.77;;;30.10;57.30;;;;;;5066537;28;20869;-69
2022/07/29 00:57:01;;;;;;;4.07;3.77;;;30.10;57.30;;;;;;5065353;28;20470;-69
2022/07/29 00:59:35;;;;;;;4.70;4.30;;;30.10;57.30;;;;;;5059245;28;20484;-69
2022/07/29 01:02:03;;;;;;;3.67;3.43;;;30.10;57.30;;;;;;5057489;28;20462;-69
2022/07/29 01:04:32;;;;;;;4.30;3.90;;;30.10;57.30;;;;;;5051857;28;20862;-69
2022/07/29 01:07:02;;;;;;;4.23;3.87;;;30.10;57.30;;;;;;5064892;28;20874;-69
2022/07/29 01:09:32;;;;;;;3.90;3.70;;;30.10;57.30;;;;;;5068868;28;20516;-69
2022/07/29 01:12:17;;;;;;;3.90;3.60;;;30.10;57.30;;;;;;5065143;28;20459;-69
2022/07/29 01:14:48;;;;;;;4.00;3.70;;;30.10;57.40;;;;;;5068944;28;20458;-69
2022/07/29 01:17:21;;;;;;;4.00;3.80;;;30.10;57.40;;;;;;5068983;28;21099;-70
2022/07/29 01:19:56;;;;;;;3.90;3.60;;;30.10;57.40;;;;;;5068115;28;20446;-69
2022/07/29 01:22:36;;;;;;;4.83;4.50;;;30.10;57.40;;;;;;5055502;28;20457;-69
2022/07/29 01:25:20;;;;;;;3.80;3.60;;;30.00;57.50;;;;;;5066657;28;20548;-71
2022/07/29 01:28:06;;;;;;;3.30;3.10;;;30.00;57.50;;;;;;5066162;28;20511;-69
2022/07/29 01:30:42;;;;;;;4.80;4.43;;;30.00;57.50;;;;;;5067199;28;20464;-69
2022/07/29 01:36:06;;;;;;;3.90;3.70;;;30.00;57.50;;;;;;5050830;28;20507;-69
2022/07/29 01:38:36;;;;;;;4.67;3.80;;;30.00;57.50;;;;;;5057061;28;20460;-70
2022/07/29 01:41:11;;;;;;;3.60;3.30;;;30.00;57.50;;;;;;5065983;28;20442;-69
2022/07/29 01:43:50;;;;;;;3.63;3.43;;;30.00;57.60;;;;;;5058236;28;20480;-69
2022/07/29 01:46:26;;;;;;;3.90;3.60;;;30.00;57.60;;;;;;5055407;28;20458;-69
2022/07/29 01:49:02;;;;;;;4.20;3.80;;;30.00;57.60;;;;;;5058236;28;20545;-69
2022/07/29 01:51:36;;;;;;;3.50;3.30;;;30.00;57.60;;;;;;5063098;28;20525;-70
2022/07/29 01:54:11;;;;;;;4.00;3.70;;;30.00;57.60;;;;;;5058254;28;20511;-69
2022/07/29 01:56:41;;;;;;;3.50;3.20;;;29.90;57.60;;;;;;5062306;28;20470;-69
2022/07/29 01:59:11;;;;;;;3.90;3.60;;;30.00;57.60;;;;;;5051275;28;20441;-69
2022/07/29 02:01:43;;;;;;;4.80;4.40;;;29.90;57.60;;;;;;5068881;28;20518;-69
2022/07/29 02:04:13;;;;;;;4.00;3.80;;;29.90;57.60;;;;;;5071372;28;20565;-69
2022/07/29 02:07:02;;;;;;;3.90;3.60;;;29.90;57.60;;;;;;5062552;28;20459;-69
2022/07/29 02:09:32;;;;;;;3.40;3.20;;;29.90;57.60;;;;;;5058242;28;20458;-70
2022/07/29 02:12:03;;;;;;;3.73;3.53;;;29.90;57.60;;;;;;5065399;28;20964;-69
2022/07/29 02:14:36;;;;;;;4.30;3.83;;;29.90;57.60;;;;;;5058356;28;20864;-69
2022/07/29 02:17:06;;;;;;;4.00;3.80;;;29.90;57.60;;;;;;5065966;28;20454;-70
2022/07/29 02:19:38;;;;;;;4.17;3.77;;;29.90;57.60;;;;;;5071553;28;20444;-69
2022/07/29 02:22:07;;;;;;;4.63;4.33;;;29.90;57.60;;;;;;5055267;28;20501;-69
2022/07/29 02:24:37;;;;;;;3.80;3.50;;;29.90;57.60;;;;;;5062847;28;20521;-70
2022/07/29 02:27:06;;;;;;;4.43;3.57;;;29.90;57.60;;;;;;5051081;28;20457;-69
2022/07/29 02:29:36;;;;;;;3.90;3.60;;;29.90;57.70;;;;;;5054456;28;20463;-69
2022/07/29 02:32:07;;;;;;;3.57;3.37;;;29.90;58.00;;;;;;5054775;28;20558;-69
2022/07/29 02:34:38;;;;;;;3.70;3.50;;;29.80;57.80;;;;;;5051416;28;20491;-69
2022/07/29 02:37:08;;;;;;;3.47;3.27;;;29.80;57.80;;;;;;5051362;28;20502;-69
2022/07/29 02:39:38;;;;;;;4.23;3.93;;;29.80;57.70;;;;;;5050336;28;20536;-69
2022/07/29 02:42:09;;;;;;;3.57;3.37;;;29.80;57.70;;;;;;5067961;28;20495;-69
2022/07/29 02:44:37;;;;;;;3.80;3.50;;;29.80;57.80;;;;;;5058933;28;20557;-69
2022/07/29 02:47:14;;;;;;;4.10;3.80;;;29.80;57.80;;;;;;5051408;28;20942;-69
2022/07/29 02:49:53;;;;;;;3.90;3.70;;;29.80;57.90;;;;;;5053101;28;20899;-70
2022/07/29 02:52:25;;;;;;;4.03;3.83;;;29.80;57.90;;;;;;5053458;28;20536;-69
2022/07/29 02:54:57;;;;;;;3.07;2.77;;;29.80;57.90;;;;;;5061200;28;20951;-69
2022/07/29 02:57:33;;;;;;;3.20;3.00;;;29.80;57.90;;;;;;5075133;28;20474;-71
2022/07/29 03:00:06;;;;;;;4.00;3.80;;;29.80;57.90;;;;;;5074519;28;20721;-69
2022/07/29 03:02:40;;;;;;;3.80;3.50;;;29.80;57.90;;;;;;5057633;28;20523;-69
2022/07/29 03:05:14;;;;;;;3.27;3.07;;;29.80;58.00;;;;;;5057034;28;20517;-69
2022/07/29 03:07:48;;;;;;;4.63;3.70;;;29.80;58.10;;;;;;5055765;28;20428;-69
2022/07/29 03:10:17;;;;;;;3.97;3.77;;;29.80;58.20;;;;;;5067133;28;20456;-70
2022/07/29 03:12:46;;;;;;;4.03;3.73;;;29.70;58.30;;;;;;5073070;28;20533;-69
2022/07/29 03:15:14;;;;;;;4.60;4.30;;;29.70;58.80;;;;;;5058792;28;20488;-70
2022/07/29 03:17:44;;;;;;;4.80;4.50;;;29.70;58.50;;;;;;5055047;28;20603;-69
2022/07/29 03:20:13;;;;;;;3.80;3.57;;;29.70;58.60;;;;;;5059383;28;20470;-69
2022/07/29 03:22:43;;;;;;;4.00;3.80;;;29.70;59.00;;;;;;5063369;28;20536;-70
2022/07/29 03:25:13;;;;;;;3.70;3.50;;;29.60;59.10;;;;;;5053955;28;20500;-69
2022/07/29 03:27:42;;;;;;;3.47;3.27;;;29.60;58.40;;;;;;5064949;28;20456;-69
2022/07/29 03:30:12;;;;;;;3.43;3.23;;;29.60;58.70;;;;;;5073257;28;20511;-69
2022/07/29 03:32:51;;;;;;;3.53;3.30;;;29.60;58.60;;;;;;5074562;28;20494;-69
2022/07/29 03:35:20;;;;;;;3.30;3.10;;;29.60;58.30;;;;;;5072596;28;20459;-69
2022/07/29 03:37:49;;;;;;;4.10;3.90;;;29.60;58.30;;;;;;5072229;28;20870;-70
2022/07/29 03:40:22;;;;;;;3.60;3.40;;;29.60;58.20;;;;;;5072806;28;20558;-69
2022/07/29 03:42:53;;;;;;;3.87;3.67;;;29.60;58.20;;;;;;5074225;28;20438;-69
2022/07/29 03:45:22;;;;;;;3.63;3.43;;;29.60;58.20;;;;;;5056305;28;20889;-69
2022/07/29 03:47:57;;;;;;;3.33;3.13;;;29.60;58.20;;;;;;5062264;28;20490;-70
2022/07/29 03:50:29;;;;;;;3.77;3.57;;;29.60;58.20;;;;;;5068059;28;20493;-70
2022/07/29 03:52:58;;;;;;;3.50;3.30;;;29.60;58.20;;;;;;5067614;28;20510;-69
2022/07/29 03:55:27;;;;;;;3.50;3.30;;;29.60;58.20;;;;;;5062889;28;20473;-69
2022/07/29 03:57:57;;;;;;;3.43;3.20;;;29.60;58.20;;;;;;5072361;28;21023;-69
2022/07/29 04:00:27;;;;;;;3.53;3.33;;;29.60;58.20;;;;;;5070820;28;20422;-69
2022/07/29 04:02:57;;;;;;;3.17;3.07;;;29.60;58.20;;;;;;5053328;28;20842;-69
2022/07/29 04:05:25;;;;;;;3.87;3.57;;;29.60;58.30;;;;;;5072002;28;20468;-69
2022/07/29 04:07:53;;;;;;;3.27;3.07;;;29.60;58.20;;;;;;5072790;28;20496;-69
2022/07/29 04:10:22;;;;;;;3.50;3.30;;;29.60;58.30;;;;;;5057646;28;20488;-69
2022/07/29 04:12:58;;;;;;;4.10;3.90;;;29.60;58.30;;;;;;5069953;28;20484;-70
2022/07/29 04:15:28;;;;;;;4.23;3.80;;;29.60;58.30;;;;;;5069805;28;20446;-69
2022/07/29 04:18:00;;;;;;;3.27;3.07;;;29.60;58.30;;;;;;5056109;28;20477;-69
2022/07/29 04:20:28;;;;;;;3.50;3.30;;;29.60;58.30;;;;;;5055150;28;20476;-70
2022/07/29 04:22:57;;;;;;;3.80;3.50;;;29.60;58.30;;;;;;5063440;28;20457;-69
2022/07/29 04:25:25;;;;;;;3.63;3.30;;;29.60;58.30;;;;;;5061078;28;20557;-69
2022/07/29 04:28:02;;;;;;;3.50;3.30;;;29.60;58.30;;;;;;5059750;28;20494;-69
2022/07/29 04:30:32;;;;;;;3.50;3.30;;;29.60;58.30;;;;;;5058324;28;20461;-70
2022/07/29 04:33:03;;;;;;;3.87;3.57;;;29.60;58.30;;;;;;5057571;28;20888;-69
2022/07/29 04:35:34;;;;;;;4.40;4.10;;;29.60;58.30;;;;;;5059315;28;20517;-69
2022/07/29 04:38:07;;;;;;;3.70;3.50;;;29.60;58.30;;;;;;5057441;28;20917;-69
2022/07/29 04:40:42;;;;;;;3.40;3.20;;;29.60;58.30;;;;;;5055220;28;20450;-69
2022/07/29 04:43:11;;;;;;;3.70;3.50;;;29.60;58.30;;;;;;5056040;28;20457;-69
2022/07/29 04:45:42;;;;;;;3.27;3.00;;;29.60;58.30;;;;;;5056614;28;20474;-69
2022/07/29 04:48:12;;;;;;;4.10;3.80;;;29.60;58.30;;;;;;5059795;28;20450;-69
2022/07/29 04:50:40;;;;;;;3.80;3.60;;;29.60;58.70;;;;;;5068162;28;20474;-69
2022/07/29 04:53:09;;;;;;;7.33;6.73;;;29.60;58.90;;;;;;5060842;28;20597;-69
2022/07/29 04:55:37;;;;;;;6.40;5.37;;;29.50;59.10;;;;;;5059749;28;20511;-69
2022/07/29 04:58:07;;;;;;;6.60;6.00;;;29.50;59.50;;;;;;5059515;28;20473;-69
2022/07/29 05:00:35;;;;;;;4.80;4.40;;;29.50;59.40;;;;;;5054177;28;20535;-69
2022/07/29 05:03:03;;;;;;;4.80;4.50;;;29.50;59.40;;;;;;5057073;28;21042;-69
2022/07/29 05:05:33;;;;;;;6.73;5.97;;;29.50;59.40;;;;;;5054903;28;20478;-69
2022/07/29 05:08:01;;;;;;;3.77;3.57;;;29.50;59.50;;;;;;5056594;28;20776;-69
2022/07/29 05:10:30;;;;;;;3.53;3.33;;;29.50;59.40;;;;;;5066632;28;20548;-70
2022/07/29 05:12:58;;;;;;;4.80;4.40;;;29.50;59.00;;;;;;5067935;28;20485;-69
2022/07/29 05:15:26;;;;;;;4.17;3.53;;;29.50;59.40;;;;;;5057309;28;20461;-69
2022/07/29 05:17:54;;;;;;;3.60;3.30;;;29.50;59.30;;;;;;5071948;28;20836;-70
2022/07/29 05:20:26;;;;;;;3.47;3.27;;;29.50;59.00;;;;;;5053489;28;20481;-69
2022/07/29 05:22:55;;;;;;;3.20;3.00;;;29.50;58.70;;;;;;5053181;28;20575;-69
2022/07/29 05:25:24;;;;;;;3.00;2.80;;;29.50;58.60;;;;;;5060924;28;20511;-69
2022/07/29 05:28:15;;;;;;;3.80;3.50;;;29.50;58.50;;;;;;5057360;28;20446;-69
2022/07/29 05:30:44;;;;;;;3.40;3.20;;;29.50;58.50;;;;;;5072407;28;20578;-70
2022/07/29 05:33:12;;;;;;;3.40;3.20;;;29.50;58.50;;;;;;5054433;28;20517;-69
2022/07/29 05:36:00;;;;;;;4.00;3.70;;;29.50;58.50;;;;;;5056543;28;20836;-69
2022/07/29 05:38:30;;;;;;;2.87;2.70;;;29.50;58.50;;;;;;5051934;28;20545;-69
2022/07/29 05:40:59;;;;;;;3.03;2.80;;;29.50;58.50;;;;;;5057640;28;20460;-71
2022/07/29 05:43:27;;;;;;;4.40;4.10;;;29.50;58.50;;;;;;5057350;28;20804;-71
2022/07/29 05:45:55;;;;;;;3.20;3.00;;;29.60;58.50;;;;;;5060946;28;20498;-71
2022/07/29 05:48:24;;;;;;;3.10;3.00;;;29.60;58.60;;;;;;5056712;28;20545;-71
2022/07/29 05:50:52;;;;;;;3.50;3.30;;;29.60;58.60;;;;;;5052566;28;20490;-70
2022/07/29 05:53:20;;;;;;;3.20;3.00;;;29.60;58.60;;;;;;5054872;28;20527;-70
2022/07/29 05:55:51;;;;;;;3.17;2.97;;;29.60;58.60;;;;;;5057369;28;20472;-70
2022/07/29 05:58:20;;;;;;;3.53;3.23;;;29.60;58.60;;;;;;5051878;28;20857;-70
2022/07/29 06:00:48;;;;;;;3.50;3.20;;;29.60;58.60;;;;;;5054356;28;20518;-70
2022/07/29 06:03:16;;;;;;;3.90;3.60;;;29.60;58.70;;;;;;5054007;28;20548;-70
2022/07/29 06:05:45;;;;;;;2.60;2.50;;;29.60;58.70;;;;;;5053240;28;20465;-70
2022/07/29 06:08:13;;;;;;;3.00;2.80;;;29.60;58.70;;;;;;5053334;28;21009;-70
2022/07/29 06:10:41;;;;;;;3.20;3.00;;;29.60;58.70;;;;;;5052711;28;20511;-70
2022/07/29 06:13:11;;;;;;;3.30;3.10;;;29.60;58.80;;;;;;5054510;28;20459;-70
2022/07/29 06:15:39;;;;;;;4.17;3.77;;;29.60;59.10;;;;;;5050830;28;20510;-69
2022/07/29 06:18:09;;;;;;;3.63;3.43;;;29.60;59.20;;;;;;5051627;28;20451;-70
2022/07/29 06:20:38;;;;;;;5.00;4.60;;;29.50;59.60;;;;;;5057988;28;20469;-73
2022/07/29 06:23:06;;;;;;;5.63;4.83;;;29.50;59.70;;;;;;5052853;28;20517;-72
2022/07/29 06:25:36;;;;;;;6.53;6.03;;;29.20;60.50;;;;;;5055830;28;20514;-73
2022/07/29 06:28:05;;;;;;;6.23;5.70;;;28.80;61.60;;;;;;5056133;28;20978;-73
2022/07/29 06:30:34;;;;;;;5.50;5.10;;;28.30;63.10;;;;;;5054908;28;20874;-73
2022/07/29 06:33:03;;;;;;;5.80;5.40;;;27.90;63.90;;;;;;5051663;28;20459;-73
2022/07/29 06:35:33;;;;;;;6.30;5.80;;;27.60;64.50;;;;;;5061043;28;20509;-73
2022/07/29 06:38:09;;;;;;;6.07;5.67;;;27.40;65.40;;;;;;5054252;28;20483;-73
2022/07/29 06:41:00;;;;;;;5.30;4.90;;;27.30;65.40;;;;;;5058012;28;20452;-72
2022/07/29 06:43:31;;;;;;;8.07;7.37;;;27.20;65.50;;;;;;5056922;28;20444;-72
2022/07/29 06:46:09;;;;;;;6.70;6.20;;;27.20;65.80;;;;;;5051821;28;21037;-72
2022/07/29 06:48:38;;;;;;;6.80;6.30;;;27.00;66.80;;;;;;5051262;28;20495;-72
2022/07/29 06:51:07;;;;;;;6.37;5.80;;;27.00;66.50;;;;;;5053694;28;21119;-72
2022/07/29 06:53:36;;;;;;;6.80;6.30;;;27.00;66.90;;;;;;5054682;28;20450;-72
2022/07/29 06:56:09;;;;;;;10.30;6.87;;;26.90;67.50;;;;;;5056157;28;20518;-73
2022/07/29 06:58:37;;;;;;;7.13;6.63;;;26.80;67.60;;;;;;5050846;28;20496;-73
2022/07/29 07:01:10;;;;;;;7.47;6.77;;;26.60;68.30;;;;;;5051229;28;20504;-73
2022/07/29 07:03:41;;;;;;;6.43;6.00;;;26.60;68.00;;;;;;5057131;28;20572;-73
2022/07/29 07:06:10;;;;;;;5.93;5.53;;;26.50;68.70;;;;;;5054983;28;20506;-72
2022/07/29 07:08:42;;;;;;;7.70;6.83;;;26.40;68.70;;;;;;5052313;28;20505;-72
2022/07/29 07:11:11;;;;;;;5.30;4.90;;;26.50;68.70;;;;;;5063178;28;20491;-73
2022/07/29 07:13:39;;;;;;;6.87;6.17;;;26.40;68.80;;;;;;5053774;28;20453;-72
2022/07/29 07:16:08;;;;;;;5.80;5.40;;;26.40;68.60;;;;;;5059021;28;20544;-72
2022/07/29 07:18:37;;;;;;;5.33;4.93;;;26.40;69.10;;;;;;5054489;28;20476;-73
2022/07/29 07:21:08;;;;;;;5.77;5.30;;;26.30;69.20;;;;;;5061530;28;20438;-73
2022/07/29 07:23:36;;;;;;;6.53;5.97;;;26.40;69.20;;;;;;5068560;28;20499;-73
2022/07/29 07:26:07;;;;;;;4.70;4.30;;;26.40;69.20;;;;;;5070394;28;20440;-73
2022/07/29 07:28:35;;;;;;;4.73;4.33;;;26.40;69.70;;;;;;5070102;28;20987;-73
2022/07/29 07:31:07;;;;;;;5.20;4.90;;;26.40;68.90;;;;;;5070608;28;20509;-73
2022/07/29 07:33:36;;;;;;;5.70;5.30;;;26.50;69.00;;;;;;5052855;28;20473;-73
2022/07/29 07:36:07;;;;;;;6.37;5.87;;;26.50;69.20;;;;;;5068820;28;20537;-73
2022/07/29 07:38:36;;;;;;;7.07;6.47;;;26.40;68.80;;;;;;5067097;28;20517;-73
2022/07/29 07:41:07;;;;;;;3.70;3.40;;;26.40;69.70;;;;;;5055534;28;20473;-73
2022/07/29 07:43:35;;;;;;;6.17;5.67;;;26.40;68.90;;;;;;5053208;28;20503;-73
2022/07/29 07:46:07;;;;;;;3.67;3.37;;;26.60;68.70;;;;;;5058448;28;20447;-73
2022/07/29 07:48:37;;;;;;;5.67;5.20;;;26.60;68.80;;;;;;5056496;28;20546;-73
2022/07/29 07:51:09;;;;;;;5.33;5.03;;;26.80;68.70;;;;;;5056381;28;20525;-69
2022/07/29 07:53:37;;;;;;;6.73;5.70;;;26.90;68.40;;;;;;5061924;28;20462;-69
2022/07/29 07:56:08;;;;;;;5.27;4.87;;;26.70;68.20;;;;;;5056388;28;20511;-69
2022/07/29 07:58:39;;;;;;;7.40;5.00;;;26.50;68.40;;;;;;5059578;28;20469;-69
2022/07/29 08:01:07;;;;;;;4.57;4.20;;;26.50;68.50;;;;;;5055471;28;20455;-69
2022/07/29 08:03:38;;;;;;;4.83;4.43;;;26.50;68.40;;;;;;5064757;28;20467;-69
2022/07/29 08:06:07;;;;;;;5.70;5.20;;;26.50;68.30;;;;;;5056871;28;20956;-69
2022/07/29 08:08:35;;;;;;;5.70;4.43;;;26.60;68.50;;;;;;5057391;28;21052;-68
2022/07/29 08:11:10;;;;;;;4.83;4.53;;;26.50;68.40;;;;;;5061387;28;20468;-69
2022/07/29 08:13:39;;;;;;;4.57;4.17;;;26.40;68.90;;;;;;5056223;28;20452;-68
2022/07/29 08:16:14;;;;;;;4.97;4.57;;;26.40;68.50;;;;;;5054864;28;20464;-68
2022/07/29 08:18:46;;;;;;;8.73;5.00;;;26.40;68.60;;;;;;5062110;28;20518;-68
2022/07/29 08:21:15;;;;;;;6.20;4.60;;;26.50;68.60;;;;;;5056291;28;20484;-68
2022/07/29 08:23:49;;;;;;;5.47;5.07;;;26.50;68.50;;;;;;5056774;28;21003;-69
2022/07/29 08:26:28;;;;;;;5.17;3.93;;;26.60;68.80;;;;;;5057405;28;20464;-72
2022/07/29 08:28:57;;;;;;;4.80;4.50;;;26.80;68.30;;;;;;5053051;28;20504;-72
2022/07/29 08:31:25;;;;;;;4.07;3.77;;;26.90;68.00;;;;;;5062253;28;20539;-72
2022/07/29 08:33:55;;;;;;;7.90;7.03;;;26.90;67.70;;;;;;5054058;28;20545;-72
2022/07/29 08:36:24;;;;;;;6.30;4.93;;;26.90;67.30;;;;;;5054021;28;20456;-72
2022/07/29 08:38:52;;;;;;;4.83;4.33;;;27.00;67.30;;;;;;5055571;28;20491;-72
2022/07/29 08:41:21;;;;;;;5.40;4.90;;;27.10;67.30;;;;;;5056686;28;21038;-72
2022/07/29 08:43:50;;;;;;;6.53;5.90;;;27.10;67.80;;;;;;5051834;28;20953;-72
2022/07/29 08:46:19;;;;;;;7.63;7.03;;;27.20;67.10;;;;;;5056010;28;20565;-72
2022/07/29 08:48:48;;;;;;;7.87;7.27;;;27.20;67.20;;;;;;5059050;28;20483;-72
2022/07/29 08:51:19;;;;;;;5.40;4.90;;;27.20;67.90;;;;;;5053559;28;20931;-72
2022/07/29 08:53:49;;;;;;;5.50;4.33;;;27.20;67.40;;;;;;5056163;28;20502;-72
2022/07/29 08:56:19;;;;;;;5.73;5.30;;;27.20;67.20;;;;;;5055335;28;20450;-72
2022/07/29 08:58:48;;;;;;;5.63;4.70;;;27.20;67.30;;;;;;5058251;28;20841;-72
2022/07/29 09:01:24;;;;;;;4.43;3.93;;;27.30;67.20;;;;;;5054188;28;20460;-72
2022/07/29 09:04:06;;;;;;;4.77;4.47;;;27.30;67.20;;;;;;5054639;28;20461;-72
2022/07/29 09:06:40;;;;;;;4.50;4.20;;;27.30;67.30;;;;;;5053073;28;20473;-72
2022/07/29 09:09:09;;;;;;;3.97;3.67;;;27.20;67.50;;;;;;5060973;28;20470;-72
2022/07/29 09:11:37;;;;;;;3.63;3.33;;;27.20;68.00;;;;;;5061251;28;20926;-71
2022/07/29 09:14:06;;;;;;;4.90;4.40;;;27.30;67.70;;;;;;5060191;28;20959;-72
2022/07/29 09:16:48;;;;;;;5.17;4.77;;;27.30;68.40;;;;;;5058218;28;20459;-72
2022/07/29 09:19:23;;;;;;;4.63;4.13;;;27.20;67.80;;;;;;5056228;28;20457;-72
2022/07/29 09:21:59;;;;;;;5.17;4.67;;;27.30;67.80;;;;;;5061701;28;20443;-72
2022/07/29 09:24:39;;;;;;;3.40;3.10;;;27.40;67.70;;;;;;5061517;28;20456;-72
2022/07/29 09:27:11;;;;;;;5.00;4.70;;;27.50;67.20;;;;;;5064641;28;20482;-72
2022/07/29 09:29:40;;;;;;;4.30;4.00;;;27.60;67.30;;;;;;5057258;28;20521;-72
2022/07/29 09:32:10;;;;;;;5.87;5.37;;;27.50;67.70;;;;;;5054838;28;20469;-72
2022/07/29 09:34:39;;;;;;;5.80;4.73;;;27.50;67.70;;;;;;5060044;28;20462;-73
2022/07/29 09:37:08;;;;;;;4.27;3.97;;;27.40;67.70;;;;;;5053888;28;20465;-72
2022/07/29 09:39:45;;;;;;;5.27;4.80;;;27.50;67.90;;;;;;5053420;28;20928;-72
2022/07/29 09:42:13;;;;;;;4.67;4.27;;;27.50;67.50;;;;;;5054905;28;20460;-72
2022/07/29 09:44:45;;;;;;;5.40;5.00;;;27.60;68.10;;;;;;5056283;28;20468;-72
2022/07/29 09:47:14;;;;;;;5.03;4.60;;;27.40;67.60;;;;;;5059820;28;20467;-72
2022/07/29 09:49:54;;;;;;;6.43;5.83;;;27.40;68.30;;;;;;5055018;28;20484;-72
2022/07/29 09:52:24;;;;;;;5.67;5.23;;;27.40;68.10;;;;;;5070085;28;20517;-72
2022/07/29 09:54:53;;;;;;;7.20;6.57;;;27.40;68.00;;;;;;5069915;28;20822;-72
2022/07/29 09:57:27;;;;;;;5.93;5.43;;;27.30;68.00;;;;;;5070447;28;20537;-72
2022/07/29 09:59:59;;;;;;;5.83;5.23;;;27.40;68.00;;;;;;5063004;28;20449;-72
2022/07/29 10:02:32;;;;;;;5.57;5.17;;;27.30;68.00;;;;;;5060021;28;20496;-72
2022/07/29 10:05:29;;;;;;;4.00;3.70;;;27.30;68.10;;;;;;5108901;27;20598;-71
2022/07/29 10:08:04;;;;;;;5.37;5.00;;;27.40;67.60;;;;;;5107461;28;20449;-71
2022/07/29 10:10:35;;;;;;;4.63;4.33;;;27.50;67.50;;;;;;5104837;28;20846;-70
2022/07/29 10:13:06;;;;;;;4.60;4.30;;;27.40;67.90;;;;;;5103100;28;20588;-70
2022/07/29 10:15:45;;;;;;;5.73;4.77;;;27.40;68.00;;;;;;5107983;28;20448;-71
2022/07/29 10:18:17;;;;;;;5.60;5.20;;;27.40;67.80;;;;;;5108513;28;20434;-70
2022/07/29 10:20:47;;;;;;;4.87;4.57;;;27.30;68.10;;;;;;5106078;28;20451;-70
2022/07/29 10:23:15;;;;;;;4.30;4.10;;;27.30;67.80;;;;;;5103763;28;20481;-70
2022/07/29 10:25:43;;;;;;;4.73;4.33;;;27.30;67.90;;;;;;5108336;28;20489;-71
2022/07/29 10:28:14;;;;;;;5.27;4.87;;;27.30;67.80;;;;;;5106296;28;20546;-72
2022/07/29 10:30:46;;;;;;;4.10;3.90;;;27.40;67.40;;;;;;5106121;28;20506;-72
2022/07/29 10:33:30;;;;;;;6.40;5.10;;;27.50;67.20;;;;;;5105113;28;20488;-72
2022/07/29 10:36:23;;;;;;;4.93;4.63;;;27.60;66.90;;;;;;5107058;28;20508;-72
2022/07/29 10:39:01;;;;;;;4.37;3.97;;;27.40;66.90;;;;;;5085906;28;20493;-71
2022/07/29 10:41:46;;;;;;;4.50;4.20;;;27.40;66.90;;;;;;5107801;28;20467;-71
2022/07/29 10:44:18;;;;;;;5.00;4.60;;;27.20;66.60;;;;;;5106223;28;20467;-71
2022/07/29 10:46:52;;;;;;;4.10;3.90;;;27.10;67.00;;;;;;5107309;28;20532;-71
2022/07/29 10:49:22;;;;;;;4.53;4.13;;;27.00;66.90;;;;;;5101637;28;20454;-69
2022/07/29 10:52:06;;;;;;;4.47;4.17;;;27.00;67.20;;;;;;5102379;28;20501;-68
2022/07/29 10:54:47;;;;;;;4.30;3.97;;;26.80;67.60;;;;;;5102159;28;20466;-69
2022/07/29 10:57:19;;;;;;;4.67;4.30;;;26.90;68.00;;;;;;5107473;28;20843;-70
2022/07/29 10:59:49;;;;;;;3.73;3.53;;;27.00;68.30;;;;;;5107764;28;20546;-69
2022/07/29 11:02:43;;;;;;;4.43;4.10;;;27.20;67.80;;;;;;5103814;28;20468;-69
2022/07/29 11:05:13;;;;;;;3.57;3.37;;;27.30;67.60;;;;;;5106441;28;20487;-69
2022/07/29 11:08:21;;;;;;;4.07;3.87;;;27.50;67.00;;;;;;5096845;28;20565;-68
2022/07/29 11:11:09;;;;;;;5.23;3.83;;;27.70;67.20;;;;;;5107017;28;20458;-69
2022/07/29 11:13:48;;;;;;;4.17;3.87;;;27.80;65.70;;;;;;5089312;28;20466;-68
2022/07/29 11:16:21;;;;;;;4.40;4.10;;;27.80;65.70;;;;;;5096998;28;20452;-69
2022/07/29 11:19:22;;;;;;;3.47;3.27;;;27.90;65.50;;;;;;5093621;28;20473;-68
2022/07/29 11:21:58;;;;;;;4.30;4.00;;;28.00;64.90;;;;;;5053656;28;20462;-75
2022/07/29 11:24:30;;;;;;;4.53;4.20;;;27.90;64.70;;;;;;5092009;28;20478;-72
2022/07/29 11:27:16;;;;;;;4.37;4.07;;;27.80;64.50;;;;;;5089084;28;20490;-70
2022/07/29 11:29:52;;;;;;;4.30;4.10;;;27.80;64.40;;;;;;5092276;28;20472;-70
2022/07/29 11:32:21;;;;;;;4.33;3.90;;;27.60;64.40;;;;;;5093499;28;20445;-70
2022/07/29 11:35:12;;;;;;;3.87;3.67;;;27.60;64.60;;;;;;5080958;28;20452;-69
2022/07/29 11:37:47;;;;;;;6.20;4.30;;;27.60;64.40;;;;;;5091175;28;21011;-70
2022/07/29 11:40:26;;;;;;;4.17;3.77;;;27.70;64.30;;;;;;5092821;28;20444;-69
2022/07/29 11:42:54;;;;;;;3.77;3.57;;;27.70;64.00;;;;;;5091702;28;20454;-69
2022/07/29 11:45:32;;;;;;;4.97;4.57;;;27.60;63.60;;;;;;5090268;28;20470;-70
2022/07/29 11:48:17;;;;;;;4.67;4.37;;;27.60;63.70;;;;;;5083292;28;20447;-69
2022/07/29 11:50:59;;;;;;;4.80;3.80;;;27.60;63.60;;;;;;5093023;28;20454;-68
2022/07/29 11:53:31;;;;;;;4.97;4.57;;;27.50;63.40;;;;;;5092857;28;21127;-68
2022/07/29 11:56:02;;;;;;;3.70;3.40;;;27.50;63.30;;;;;;5090617;28;20485;-67
2022/07/29 11:58:43;;;;;;;4.40;4.10;;;27.50;62.90;;;;;;5096234;28;20795;-67
2022/07/29 12:01:14;;;;;;;3.63;3.40;;;27.60;62.70;;;;;;5093612;28;20505;-69
2022/07/29 12:03:43;;;;;;;4.03;3.80;;;27.80;61.60;;;;;;5091605;28;20496;-69
2022/07/29 12:06:15;;;;;;;3.47;3.20;;;27.80;61.70;;;;;;5086568;28;21339;-68
2022/07/29 12:08:45;;;;;;;3.90;3.60;;;27.80;61.30;;;;;;5092234;28;20519;-68
2022/07/29 12:11:20;;;;;;;4.00;3.70;;;27.80;62.00;;;;;;5093878;28;20449;-68
2022/07/29 12:13:50;;;;;;;5.57;4.43;;;27.90;61.90;;;;;;5092310;28;20443;-68
2022/07/29 12:16:19;;;;;;;3.80;3.53;;;27.90;61.50;;;;;;5093973;28;20522;-69
2022/07/29 12:18:58;;;;;;;5.63;5.13;;;27.90;62.10;;;;;;5093019;28;20446;-69
2022/07/29 12:21:26;;;;;;;3.53;3.33;;;27.90;62.00;;;;;;5091620;28;20811;-69
2022/07/29 12:23:57;;;;;;;3.87;3.60;;;28.10;62.20;;;;;;5086959;28;20469;-68
2022/07/29 12:26:50;;;;;;;3.90;3.60;;;28.10;61.80;;;;;;5087387;28;20949;-69
2022/07/29 12:29:19;;;;;;;3.70;3.40;;;28.10;62.00;;;;;;5093232;28;20446;-68
2022/07/29 12:32:05;;;;;;;4.00;3.27;;;28.20;61.50;;;;;;5091386;28;20479;-68
2022/07/29 12:34:42;;;;;;;4.03;3.73;;;28.30;62.00;;;;;;5071227;28;20457;-68
2022/07/29 12:37:10;;;;;;;4.30;4.00;;;28.50;62.10;;;;;;5093730;28;20530;-69
2022/07/29 12:39:39;;;;;;;4.30;4.00;;;28.60;61.60;;;;;;5092394;28;20529;-68
2022/07/29 12:42:13;;;;;;;4.37;4.00;;;28.60;62.20;;;;;;5092779;28;20444;-69
2022/07/29 12:44:47;;;;;;;4.03;3.63;;;28.60;61.60;;;;;;5088578;28;20499;-69
2022/07/29 12:47:16;;;;;;;5.53;3.20;;;28.60;62.00;;;;;;5086879;28;20445;-69
2022/07/29 12:49:45;;;;;;;3.30;3.10;;;28.70;61.80;;;;;;5090371;28;20461;-69
2022/07/29 12:52:30;;;;;;;4.70;4.40;;;28.90;62.30;;;;;;5092484;28;20801;-69
2022/07/29 12:54:59;;;;;;;4.27;3.97;;;29.00;62.40;;;;;;5090664;28;20529;-68
2022/07/29 12:57:29;;;;;;;3.77;3.57;;;29.00;62.30;;;;;;5092543;28;20842;-68
2022/07/29 13:00:02;;;;;;;4.77;4.47;;;29.10;62.40;;;;;;5091996;28;20467;-68
2022/07/29 13:02:31;;;;;;;5.13;4.60;;;29.10;62.30;;;;;;5089788;28;20505;-69
2022/07/29 13:05:01;;;;;;;4.73;4.43;;;29.10;62.50;;;;;;5103479;28;20553;-69
2022/07/29 13:07:32;;;;;;;4.50;4.30;;;29.10;62.40;;;;;;5092618;28;20844;-68
2022/07/29 13:10:22;;;;;;;2.90;2.70;;;29.20;62.40;;;;;;5089230;28;20453;-69
2022/07/29 13:13:09;;;;;;;3.30;3.03;;;29.30;62.50;;;;;;5089526;28;20530;-69
2022/07/29 13:15:38;;;;;;;3.27;3.07;;;29.40;62.30;;;;;;5089946;28;20531;-69
2022/07/29 13:18:29;;;;;;;3.43;3.23;;;29.50;62.20;;;;;;5092024;28;20978;-68
2022/07/29 13:20:58;;;;;;;2.80;2.60;;;29.60;62.00;;;;;;5093128;28;20445;-67